Аэропорт: Сыктывкар. Сыктывкар

ICAO: UUYY

METAR:
2019/05/26 14:00
UUYY 261400Z 19004G09MPS 9999 SCT008 OVC028 10/09 Q1003 R18/29//51 NOSIG RMK QFE744/0992
METAR:
2019/05/26 12:24
TAF TAF UUYY 261100Z 2612/2712 18006G12MPS 6000 BKN011 BKN020CB 
      TEMPO 2612/2618 VRB14MPS 3100 -TSRA BKN007 BKN015CB 
     FM261800 20003G08MPS 9999 BKN011 BKN020CB 
      TEMPO 2618/2703 3100 -SHRA BR FEW007 BKN015CB 
      TEMPO 2703/2712 22006G12MPS 4000 -SHRA FEW007 BKN015CB